sensor_id;sensor_type;location;lat;lon;timestamp;pressure;altitude;pressure_sealevel;temperature;humidity
20825;BME280;10573;50.936;6.978;2023-03-15T00:00:00;100836.22;;;6.06;58.39
20825;BME280;10573;50.936;6.978;2023-03-15T00:02:26;100832.13;;;6.00;58.11
20825;BME280;10573;50.936;6.978;2023-03-15T00:04:51;100836.03;;;5.83;58.74
20825;BME280;10573;50.936;6.978;2023-03-15T00:07:19;100846.84;;;5.83;58.49
20825;BME280;10573;50.936;6.978;2023-03-15T00:09:50;100842.16;;;6.11;57.81
20825;BME280;10573;50.936;6.978;2023-03-15T00:12:16;100848.84;;;6.05;58.12
20825;BME280;10573;50.936;6.978;2023-03-15T00:14:41;100853.25;;;6.19;57.82
20825;BME280;10573;50.936;6.978;2023-03-15T00:17:07;100850.47;;;6.08;58.01
20825;BME280;10573;50.936;6.978;2023-03-15T00:19:32;100854.59;;;6.14;58.41
20825;BME280;10573;50.936;6.978;2023-03-15T00:21:58;100852.59;;;6.29;58.05
20825;BME280;10573;50.936;6.978;2023-03-15T00:24:23;100856.34;;;6.02;58.28
20825;BME280;10573;50.936;6.978;2023-03-15T00:26:48;100861.97;;;5.99;59.35
20825;BME280;10573;50.936;6.978;2023-03-15T00:29:14;100852.25;;;5.96;59.47
20825;BME280;10573;50.936;6.978;2023-03-15T00:31:39;100857.22;;;6.02;59.21
20825;BME280;10573;50.936;6.978;2023-03-15T00:34:05;100855.81;;;6.10;59.64
20825;BME280;10573;50.936;6.978;2023-03-15T00:36:31;100861.72;;;6.15;59.13
20825;BME280;10573;50.936;6.978;2023-03-15T00:38:56;100861.44;;;6.31;58.62
20825;BME280;10573;50.936;6.978;2023-03-15T00:41:22;100862.63;;;6.51;58.66
20825;BME280;10573;50.936;6.978;2023-03-15T00:43:49;100861.25;;;6.69;57.85
20825;BME280;10573;50.936;6.978;2023-03-15T00:46:15;100864.22;;;6.78;58.30
20825;BME280;10573;50.936;6.978;2023-03-15T00:48:41;100871.28;;;6.56;58.64
20825;BME280;10573;50.936;6.978;2023-03-15T00:51:10;100870.38;;;6.80;58.12
20825;BME280;10573;50.936;6.978;2023-03-15T00:53:37;100874.91;;;6.68;58.30
20825;BME280;10573;50.936;6.978;2023-03-15T00:56:17;100860.91;;;6.85;57.94
20825;BME280;10573;50.936;6.978;2023-03-15T00:58:44;100860.91;;;6.85;57.98
20825;BME280;10573;50.936;6.978;2023-03-15T01:01:22;100856.59;;;6.83;57.81
20825;BME280;10573;50.936;6.978;2023-03-15T01:03:47;100863.22;;;6.67;58.53
20825;BME280;10573;50.936;6.978;2023-03-15T01:06:18;100863.59;;;6.26;59.15
20825;BME280;10573;50.936;6.978;2023-03-15T01:08:45;100887.22;;;6.72;59.42
20825;BME280;10573;50.936;6.978;2023-03-15T01:11:14;100889.56;;;6.28;59.29
20825;BME280;10573;50.936;6.978;2023-03-15T01:13:40;100878.88;;;6.51;59.54
20825;BME280;10573;50.936;6.978;2023-03-15T01:16:06;100875.41;;;5.87;61.22
20825;BME280;10573;50.936;6.978;2023-03-15T01:18:31;100876.03;;;6.28;61.12
20825;BME280;10573;50.936;6.978;2023-03-15T01:20:57;100872.72;;;6.49;60.78
20825;BME280;10573;50.936;6.978;2023-03-15T01:23:23;100881.97;;;6.58;61.06
20825;BME280;10573;50.936;6.978;2023-03-15T01:25:48;100881.53;;;6.40;61.21
20825;BME280;10573;50.936;6.978;2023-03-15T01:28:14;100885.66;;;6.32;61.84
20825;BME280;10573;50.936;6.978;2023-03-15T01:30:39;100889.00;;;6.60;60.91
20825;BME280;10573;50.936;6.978;2023-03-15T01:33:05;100898.00;;;6.61;60.93
20825;BME280;10573;50.936;6.978;2023-03-15T01:35:30;100905.22;;;6.12;62.58
20825;BME280;10573;50.936;6.978;2023-03-15T01:37:56;100904.31;;;6.24;63.25
20825;BME280;10573;50.936;6.978;2023-03-15T01:40:21;100903.31;;;6.01;63.58
20825;BME280;10573;50.936;6.978;2023-03-15T01:51:20;100918.38;;;5.41;68.27
20825;BME280;10573;50.936;6.978;2023-03-15T01:53:59;100916.28;;;5.57;68.79
20825;BME280;10573;50.936;6.978;2023-03-15T01:56:26;100921.28;;;5.63;68.46
20825;BME280;10573;50.936;6.978;2023-03-15T01:58:54;100929.47;;;5.75;68.86
20825;BME280;10573;50.936;6.978;2023-03-15T02:01:23;100922.78;;;5.67;69.43
20825;BME280;10573;50.936;6.978;2023-03-15T02:03:55;100928.84;;;5.58;68.94
20825;BME280;10573;50.936;6.978;2023-03-15T02:06:23;100920.00;;;5.56;69.48
20825;BME280;10573;50.936;6.978;2023-03-15T02:08:56;100926.06;;;5.47;69.84
20825;BME280;10573;50.936;6.978;2023-03-15T02:11:24;100930.34;;;5.75;69.60
20825;BME280;10573;50.936;6.978;2023-03-15T02:13:50;100929.91;;;5.81;69.39
20825;BME280;10573;50.936;6.978;2023-03-15T02:16:17;100939.09;;;5.53;69.05
20825;BME280;10573;50.936;6.978;2023-03-15T02:18:43;100943.41;;;5.17;70.68
20825;BME280;10573;50.936;6.978;2023-03-15T02:24:31;100943.91;;;4.96;70.79
20825;BME280;10573;50.936;6.978;2023-03-15T02:26:59;100936.59;;;4.98;69.97
20825;BME280;10573;50.936;6.978;2023-03-15T02:29:25;100926.22;;;5.18;70.06
20825;BME280;10573;50.936;6.978;2023-03-15T02:31:53;100931.81;;;5.02;70.65
20825;BME280;10573;50.936;6.978;2023-03-15T02:34:19;100927.09;;;5.31;70.54
20825;BME280;10573;50.936;6.978;2023-03-15T02:36:49;100924.72;;;5.14;69.07
20825;BME280;10573;50.936;6.978;2023-03-15T02:39:18;100928.38;;;4.73;69.64
20825;BME280;10573;50.936;6.978;2023-03-15T02:41:48;100926.28;;;4.50;69.66
20825;BME280;10573;50.936;6.978;2023-03-15T02:44:23;100928.28;;;4.19;71.11
20825;BME280;10573;50.936;6.978;2023-03-15T02:46:52;100936.16;;;4.37;71.04
20825;BME280;10573;50.936;6.978;2023-03-15T02:49:22;100937.31;;;4.33;70.41
20825;BME280;10573;50.936;6.978;2023-03-15T02:51:49;100939.53;;;4.26;70.96
20825;BME280;10573;50.936;6.978;2023-03-15T02:54:15;100940.69;;;4.36;70.52
20825;BME280;10573;50.936;6.978;2023-03-15T02:56:40;100941.53;;;4.37;71.18
20825;BME280;10573;50.936;6.978;2023-03-15T02:59:06;100941.66;;;4.21;70.94
20825;BME280;10573;50.936;6.978;2023-03-15T03:01:31;100954.91;;;4.39;70.69
20825;BME280;10573;50.936;6.978;2023-03-15T03:03:57;100953.53;;;4.46;70.71
20825;BME280;10573;50.936;6.978;2023-03-15T03:06:22;100946.91;;;4.51;70.54
20825;BME280;10573;50.936;6.978;2023-03-15T03:08:48;100945.84;;;4.54;70.15
20825;BME280;10573;50.936;6.978;2023-03-15T03:11:14;100943.22;;;4.52;70.86
20825;BME280;10573;50.936;6.978;2023-03-15T03:13:40;100948.78;;;4.64;70.22
20825;BME280;10573;50.936;6.978;2023-03-15T03:16:07;100952.19;;;4.53;70.31
20825;BME280;10573;50.936;6.978;2023-03-15T03:18:32;100952.19;;;4.53;71.02
20825;BME280;10573;50.936;6.978;2023-03-15T03:21:00;100951.69;;;4.61;70.15
20825;BME280;10573;50.936;6.978;2023-03-15T03:23:27;100956.97;;;4.62;70.50
20825;BME280;10573;50.936;6.978;2023-03-15T03:25:54;100965.22;;;4.74;70.21
20825;BME280;10573;50.936;6.978;2023-03-15T03:28:25;100966.78;;;4.91;70.28
20825;BME280;10573;50.936;6.978;2023-03-15T03:30:52;100975.56;;;4.94;69.79
20825;BME280;10573;50.936;6.978;2023-03-15T03:33:18;100974.13;;;4.88;70.40
20825;BME280;10573;50.936;6.978;2023-03-15T03:35:44;100974.09;;;4.76;70.11
20825;BME280;10573;50.936;6.978;2023-03-15T03:38:10;100985.38;;;4.95;69.44
20825;BME280;10573;50.936;6.978;2023-03-15T03:40:37;100990.38;;;5.01;69.59
20825;BME280;10573;50.936;6.978;2023-03-15T03:43:02;100990.59;;;4.98;69.42
20825;BME280;10573;50.936;6.978;2023-03-15T03:45:28;100983.19;;;4.87;69.61
20825;BME280;10573;50.936;6.978;2023-03-15T03:47:53;100991.53;;;4.97;69.62
20825;BME280;10573;50.936;6.978;2023-03-15T03:50:18;100995.91;;;4.85;70.30
20825;BME280;10573;50.936;6.978;2023-03-15T03:52:44;100989.41;;;4.75;71.10
20825;BME280;10573;50.936;6.978;2023-03-15T03:55:10;100998.38;;;4.76;70.02
20825;BME280;10573;50.936;6.978;2023-03-15T03:57:38;100987.25;;;4.80;69.43
20825;BME280;10573;50.936;6.978;2023-03-15T04:00:04;100987.38;;;4.79;69.91
20825;BME280;10573;50.936;6.978;2023-03-15T04:02:30;100987.97;;;4.69;70.22
20825;BME280;10573;50.936;6.978;2023-03-15T04:04:55;100988.09;;;4.68;69.88
20825;BME280;10573;50.936;6.978;2023-03-15T04:07:21;100991.94;;;4.64;70.36
20825;BME280;10573;50.936;6.978;2023-03-15T04:09:46;100993.94;;;4.75;70.22
20825;BME280;10573;50.936;6.978;2023-03-15T04:12:12;100992.66;;;4.80;70.31
20825;BME280;10573;50.936;6.978;2023-03-15T04:14:37;100993.34;;;4.97;69.73
20825;BME280;10573;50.936;6.978;2023-03-15T04:17:02;101003.31;;;4.96;69.84
20825;BME280;10573;50.936;6.978;2023-03-15T04:19:29;101001.78;;;4.92;69.71
20825;BME280;10573;50.936;6.978;2023-03-15T04:21:55;101009.81;;;5.07;69.10
20825;BME280;10573;50.936;6.978;2023-03-15T04:24:20;101009.25;;;5.01;70.20
20825;BME280;10573;50.936;6.978;2023-03-15T04:26:45;101012.47;;;5.21;69.57
20825;BME280;10573;50.936;6.978;2023-03-15T04:29:11;101006.63;;;5.14;70.64
20825;BME280;10573;50.936;6.978;2023-03-15T04:31:38;101006.97;;;4.95;70.86
20825;BME280;10573;50.936;6.978;2023-03-15T04:34:07;101007.91;;;5.21;69.94
20825;BME280;10573;50.936;6.978;2023-03-15T04:36:33;101019.25;;;5.14;70.13
20825;BME280;10573;50.936;6.978;2023-03-15T04:38:58;101018.41;;;5.26;70.22
20825;BME280;10573;50.936;6.978;2023-03-15T04:41:32;101022.09;;;5.38;69.93
20825;BME280;10573;50.936;6.978;2023-03-15T04:44:00;101028.25;;;5.27;69.37
20825;BME280;10573;50.936;6.978;2023-03-15T04:46:25;101029.13;;;5.00;69.47
20825;BME280;10573;50.936;6.978;2023-03-15T04:48:51;101037.53;;;4.96;69.22
20825;BME280;10573;50.936;6.978;2023-03-15T04:51:16;101043.31;;;5.17;69.52
20825;BME280;10573;50.936;6.978;2023-03-15T04:53:42;101046.81;;;5.19;69.31
20825;BME280;10573;50.936;6.978;2023-03-15T04:56:07;101051.69;;;4.99;69.66
20825;BME280;10573;50.936;6.978;2023-03-15T04:58:32;101053.72;;;4.68;69.80
20825;BME280;10573;50.936;6.978;2023-03-15T05:00:58;101053.31;;;4.75;70.16
20825;BME280;10573;50.936;6.978;2023-03-15T05:03:23;101052.00;;;4.67;70.25
20825;BME280;10573;50.936;6.978;2023-03-15T05:05:48;101066.47;;;4.37;70.58
20825;BME280;10573;50.936;6.978;2023-03-15T05:08:14;101060.22;;;4.37;71.76
20825;BME280;10573;50.936;6.978;2023-03-15T05:10:39;101050.28;;;4.52;70.53
20825;BME280;10573;50.936;6.978;2023-03-15T05:13:05;101059.69;;;4.59;70.89
20825;BME280;10573;50.936;6.978;2023-03-15T05:15:30;101058.03;;;4.71;69.97
20825;BME280;10573;50.936;6.978;2023-03-15T05:17:56;101064.72;;;4.65;70.04
20825;BME280;10573;50.936;6.978;2023-03-15T05:20:22;101063.72;;;4.81;69.66
20825;BME280;10573;50.936;6.978;2023-03-15T05:22:47;101068.41;;;4.35;71.35
20825;BME280;10573;50.936;6.978;2023-03-15T05:25:13;101070.69;;;4.70;71.36
20825;BME280;10573;50.936;6.978;2023-03-15T05:27:40;101075.63;;;4.91;70.44
20825;BME280;10573;50.936;6.978;2023-03-15T05:30:06;101073.88;;;4.48;70.60
20825;BME280;10573;50.936;6.978;2023-03-15T05:32:32;101073.16;;;4.74;69.93
20825;BME280;10573;50.936;6.978;2023-03-15T05:35:04;101082.63;;;5.08;69.40
20825;BME280;10573;50.936;6.978;2023-03-15T05:37:30;101078.69;;;4.99;69.62
20825;BME280;10573;50.936;6.978;2023-03-15T05:39:57;101086.91;;;4.98;71.53
20825;BME280;10573;50.936;6.978;2023-03-15T05:42:22;101097.19;;;5.06;70.86
20825;BME280;10573;50.936;6.978;2023-03-15T05:44:51;101100.41;;;4.98;70.23
20825;BME280;10573;50.936;6.978;2023-03-15T05:47:17;101104.75;;;4.86;69.83
20825;BME280;10573;50.936;6.978;2023-03-15T05:49:42;101106.50;;;4.87;70.20
20825;BME280;10573;50.936;6.978;2023-03-15T05:52:08;101111.69;;;4.90;71.87
20825;BME280;10573;50.936;6.978;2023-03-15T05:54:33;101121.03;;;4.99;70.09
20825;BME280;10573;50.936;6.978;2023-03-15T05:56:59;101132.94;;;4.67;70.43
20825;BME280;10573;50.936;6.978;2023-03-15T05:59:24;101135.03;;;4.91;70.22
20825;BME280;10573;50.936;6.978;2023-03-15T06:01:50;101140.72;;;5.01;69.58
20825;BME280;10573;50.936;6.978;2023-03-15T06:04:15;101140.03;;;4.97;69.64
20825;BME280;10573;50.936;6.978;2023-03-15T06:06:41;101158.19;;;4.66;70.62
20825;BME280;10573;50.936;6.978;2023-03-15T06:09:06;101158.38;;;4.92;69.86
20825;BME280;10573;50.936;6.978;2023-03-15T06:11:31;101162.22;;;4.88;70.29
20825;BME280;10573;50.936;6.978;2023-03-15T06:13:57;101170.44;;;4.86;70.86
20825;BME280;10573;50.936;6.978;2023-03-15T06:16:22;101174.25;;;4.39;71.98
20825;BME280;10573;50.936;6.978;2023-03-15T06:18:48;101165.50;;;4.93;70.03
20825;BME280;10573;50.936;6.978;2023-03-15T06:21:13;101174.09;;;4.42;71.51
20825;BME280;10573;50.936;6.978;2023-03-15T06:23:38;101176.72;;;4.58;71.98
20825;BME280;10573;50.936;6.978;2023-03-15T06:26:04;101183.00;;;5.15;70.77
20825;BME280;10573;50.936;6.978;2023-03-15T06:28:29;101185.72;;;5.00;70.82
20825;BME280;10573;50.936;6.978;2023-03-15T06:30:55;101187.94;;;5.23;70.31
20825;BME280;10573;50.936;6.978;2023-03-15T06:33:20;101181.00;;;5.04;71.08
20825;BME280;10573;50.936;6.978;2023-03-15T06:35:46;101181.22;;;4.58;72.17
20825;BME280;10573;50.936;6.978;2023-03-15T06:38:11;101188.94;;;4.78;71.62
20825;BME280;10573;50.936;6.978;2023-03-15T06:40:38;101191.91;;;4.74;71.63
20825;BME280;10573;50.936;6.978;2023-03-15T06:43:03;101198.66;;;5.10;70.93
20825;BME280;10573;50.936;6.978;2023-03-15T06:45:31;101207.31;;;5.15;70.04
20825;BME280;10573;50.936;6.978;2023-03-15T06:47:56;101217.91;;;5.18;70.46
20825;BME280;10573;50.936;6.978;2023-03-15T06:50:22;101221.97;;;5.25;70.16
20825;BME280;10573;50.936;6.978;2023-03-15T06:52:48;101223.16;;;5.21;70.07
20825;BME280;10573;50.936;6.978;2023-03-15T06:55:13;101229.69;;;5.17;69.67
20825;BME280;10573;50.936;6.978;2023-03-15T06:57:45;101228.47;;;5.50;69.29
20825;BME280;10573;50.936;6.978;2023-03-15T07:00:11;101227.88;;;5.59;69.69
20825;BME280;10573;50.936;6.978;2023-03-15T07:02:37;101228.81;;;5.85;67.67
20825;BME280;10573;50.936;6.978;2023-03-15T07:05:05;101237.38;;;5.52;68.72
20825;BME280;10573;50.936;6.978;2023-03-15T07:07:31;101240.31;;;5.89;68.19
20825;BME280;10573;50.936;6.978;2023-03-15T07:09:56;101244.41;;;5.82;67.51
20825;BME280;10573;50.936;6.978;2023-03-15T07:12:22;101253.81;;;5.89;68.11
20825;BME280;10573;50.936;6.978;2023-03-15T07:14:47;101251.03;;;5.63;67.95
20825;BME280;10573;50.936;6.978;2023-03-15T07:17:14;101251.25;;;5.60;68.05
20825;BME280;10573;50.936;6.978;2023-03-15T07:19:39;101253.25;;;5.84;66.69
20825;BME280;10573;50.936;6.978;2023-03-15T07:22:04;101260.66;;;5.95;66.54
20825;BME280;10573;50.936;6.978;2023-03-15T07:24:30;101265.22;;;5.94;67.35
20825;BME280;10573;50.936;6.978;2023-03-15T07:26:55;101269.31;;;5.87;67.38
20825;BME280;10573;50.936;6.978;2023-03-15T07:29:22;101276.03;;;5.94;67.15
20825;BME280;10573;50.936;6.978;2023-03-15T07:31:48;101273.31;;;5.94;67.90
20825;BME280;10573;50.936;6.978;2023-03-15T07:34:14;101289.81;;;5.77;67.81
20825;BME280;10573;50.936;6.978;2023-03-15T07:36:39;101295.97;;;5.23;69.58
20825;BME280;10573;50.936;6.978;2023-03-15T07:39:05;101296.53;;;5.84;69.09
20825;BME280;10573;50.936;6.978;2023-03-15T07:41:30;101301.78;;;5.72;69.08
20825;BME280;10573;50.936;6.978;2023-03-15T07:43:56;101305.66;;;5.96;68.19
20825;BME280;10573;50.936;6.978;2023-03-15T07:46:21;101301.53;;;5.90;69.28
20825;BME280;10573;50.936;6.978;2023-03-15T07:48:47;101317.19;;;5.43;69.33
20825;BME280;10573;50.936;6.978;2023-03-15T07:51:12;101324.56;;;5.83;68.94
20825;BME280;10573;50.936;6.978;2023-03-15T07:53:37;101330.00;;;5.40;69.74
20825;BME280;10573;50.936;6.978;2023-03-15T07:56:03;101334.22;;;4.86;71.00
20825;BME280;10573;50.936;6.978;2023-03-15T07:58:29;101340.91;;;5.38;70.10
20825;BME280;10573;50.936;6.978;2023-03-15T08:00:55;101345.25;;;4.97;71.08
20825;BME280;10573;50.936;6.978;2023-03-15T08:03:22;101345.16;;;4.68;71.77
20825;BME280;10573;50.936;6.978;2023-03-15T08:05:49;101353.16;;;5.44;70.82
20825;BME280;10573;50.936;6.978;2023-03-15T08:08:14;101362.13;;;5.01;71.09
20825;BME280;10573;50.936;6.978;2023-03-15T08:10:40;101347.84;;;5.57;70.24
20825;BME280;10573;50.936;6.978;2023-03-15T08:13:05;101354.78;;;5.90;69.94
20825;BME280;10573;50.936;6.978;2023-03-15T08:15:31;101355.25;;;5.96;68.07
20825;BME280;10573;50.936;6.978;2023-03-15T08:17:56;101355.63;;;5.90;67.06
20825;BME280;10573;50.936;6.978;2023-03-15T08:20:23;101361.41;;;6.13;67.14
20825;BME280;10573;50.936;6.978;2023-03-15T08:22:49;101360.47;;;6.54;65.10
20825;BME280;10573;50.936;6.978;2023-03-15T08:25:17;101361.31;;;6.54;65.60
20825;BME280;10573;50.936;6.978;2023-03-15T08:27:43;101371.66;;;6.75;65.38
20825;BME280;10573;50.936;6.978;2023-03-15T08:30:11;101379.47;;;6.80;65.35
20825;BME280;10573;50.936;6.978;2023-03-15T08:32:38;101376.03;;;7.03;63.46
20825;BME280;10573;50.936;6.978;2023-03-15T08:35:04;101378.97;;;7.26;63.97
20825;BME280;10573;50.936;6.978;2023-03-15T08:37:30;101378.53;;;7.07;63.20
20825;BME280;10573;50.936;6.978;2023-03-15T08:39:56;101377.34;;;7.11;62.92
20825;BME280;10573;50.936;6.978;2023-03-15T08:42:27;101385.06;;;7.30;61.78
20825;BME280;10573;50.936;6.978;2023-03-15T08:44:53;101389.97;;;6.71;62.38
20825;BME280;10573;50.936;6.978;2023-03-15T08:47:18;101388.94;;;7.13;60.65
20825;BME280;10573;50.936;6.978;2023-03-15T08:49:44;101394.25;;;7.27;60.74
20825;BME280;10573;50.936;6.978;2023-03-15T08:52:09;101400.22;;;7.58;60.14
20825;BME280;10573;50.936;6.978;2023-03-15T08:54:35;101406.63;;;7.70;60.11
20825;BME280;10573;50.936;6.978;2023-03-15T08:57:00;101409.50;;;7.80;59.74
20825;BME280;10573;50.936;6.978;2023-03-15T08:59:25;101416.91;;;7.65;58.74
20825;BME280;10573;50.936;6.978;2023-03-15T09:01:51;101427.88;;;7.63;59.48
20825;BME280;10573;50.936;6.978;2023-03-15T09:04:17;101429.38;;;7.54;60.02
20825;BME280;10573;50.936;6.978;2023-03-15T09:06:43;101433.09;;;7.53;60.11
20825;BME280;10573;50.936;6.978;2023-03-15T09:09:08;101428.97;;;7.73;59.99
20825;BME280;10573;50.936;6.978;2023-03-15T09:11:33;101428.44;;;7.68;59.21
20825;BME280;10573;50.936;6.978;2023-03-15T09:13:59;101437.31;;;7.83;59.11
20825;BME280;10573;50.936;6.978;2023-03-15T09:16:24;101434.19;;;7.51;58.39
20825;BME280;10573;50.936;6.978;2023-03-15T09:18:50;101432.72;;;7.97;57.56
20825;BME280;10573;50.936;6.978;2023-03-15T09:21:15;101431.41;;;8.02;57.63
20825;BME280;10573;50.936;6.978;2023-03-15T09:23:41;101427.25;;;8.10;55.75
20825;BME280;10573;50.936;6.978;2023-03-15T09:26:06;101427.78;;;8.15;55.83
20825;BME280;10573;50.936;6.978;2023-03-15T09:28:32;101431.41;;;8.39;55.77
20825;BME280;10573;50.936;6.978;2023-03-15T09:30:57;101439.94;;;8.59;55.53
20825;BME280;10573;50.936;6.978;2023-03-15T09:33:23;101437.56;;;8.42;55.40
20825;BME280;10573;50.936;6.978;2023-03-15T09:35:51;101434.22;;;8.01;56.93
20825;BME280;10573;50.936;6.978;2023-03-15T09:38:18;101440.78;;;7.72;56.82
20825;BME280;10573;50.936;6.978;2023-03-15T09:40:44;101440.34;;;7.53;57.25
20825;BME280;10573;50.936;6.978;2023-03-15T09:46:09;101454.00;;;7.90;58.16
20825;BME280;10573;50.936;6.978;2023-03-15T09:54:34;101451.63;;;7.72;56.79
20825;BME280;10573;50.936;6.978;2023-03-15T09:57:03;101447.69;;;8.02;57.06
20825;BME280;10573;50.936;6.978;2023-03-15T09:59:36;101446.41;;;7.95;55.83
20825;BME280;10573;50.936;6.978;2023-03-15T10:02:19;101447.56;;;8.04;56.92
20825;BME280;10573;50.936;6.978;2023-03-15T10:04:48;101447.19;;;7.84;54.98
20825;BME280;10573;50.936;6.978;2023-03-15T10:07:16;101451.78;;;8.21;54.85
20825;BME280;10573;50.936;6.978;2023-03-15T10:09:42;101453.34;;;7.99;54.70
20825;BME280;10573;50.936;6.978;2023-03-15T10:12:12;101450.16;;;8.05;54.30
20825;BME280;10573;50.936;6.978;2023-03-15T10:17:15;101445.00;;;8.39;53.61
20825;BME280;10573;50.936;6.978;2023-03-15T10:19:49;101443.53;;;8.60;54.02
20825;BME280;10573;50.936;6.978;2023-03-15T10:22:28;101440.13;;;8.69;53.35
20825;BME280;10573;50.936;6.978;2023-03-15T10:25:19;101452.91;;;8.55;53.94
20825;BME280;10573;50.936;6.978;2023-03-15T10:27:59;101442.13;;;8.54;53.32
20825;BME280;10573;50.936;6.978;2023-03-15T10:30:31;101448.84;;;8.61;52.97
20825;BME280;10573;50.936;6.978;2023-03-15T10:35:25;101459.38;;;9.37;51.23
20825;BME280;10573;50.936;6.978;2023-03-15T10:37:51;101465.81;;;8.52;52.02
20825;BME280;10573;50.936;6.978;2023-03-15T10:40:38;101456.28;;;9.30;50.74
20825;BME280;10573;50.936;6.978;2023-03-15T10:43:33;101451.72;;;9.31;51.11
20825;BME280;10573;50.936;6.978;2023-03-15T10:46:11;101453.81;;;9.38;49.38
20825;BME280;10573;50.936;6.978;2023-03-15T10:51:47;101446.22;;;9.89;47.27
20825;BME280;10573;50.936;6.978;2023-03-15T10:54:21;101446.44;;;9.97;47.45
20825;BME280;10573;50.936;6.978;2023-03-15T10:56:49;101448.28;;;9.51;48.88
20825;BME280;10573;50.936;6.978;2023-03-15T10:59:21;101447.84;;;9.22;48.42
20825;BME280;10573;50.936;6.978;2023-03-15T11:01:52;101452.75;;;9.05;49.77
20825;BME280;10573;50.936;6.978;2023-03-15T11:06:48;101452.69;;;8.09;50.43
20825;BME280;10573;50.936;6.978;2023-03-15T11:09:20;101451.56;;;8.85;49.59
20825;BME280;10573;50.936;6.978;2023-03-15T11:12:01;101452.31;;;9.34;48.24
20825;BME280;10573;50.936;6.978;2023-03-15T11:14:45;101451.56;;;8.85;48.07
20825;BME280;10573;50.936;6.978;2023-03-15T11:19:50;101461.88;;;9.04;47.89
20825;BME280;10573;50.936;6.978;2023-03-15T11:22:16;101460.94;;;9.17;48.10
20825;BME280;10573;50.936;6.978;2023-03-15T11:24:41;101470.97;;;8.92;48.83
20825;BME280;10573;50.936;6.978;2023-03-15T11:27:12;101466.59;;;8.41;49.83
20825;BME280;10573;50.936;6.978;2023-03-15T11:29:42;101466.16;;;7.71;49.23
20825;BME280;10573;50.936;6.978;2023-03-15T11:32:29;101469.06;;;8.81;47.27
20825;BME280;10573;50.936;6.978;2023-03-15T11:37:37;101476.34;;;9.52;44.90
20825;BME280;10573;50.936;6.978;2023-03-15T11:40:20;101472.22;;;10.04;44.06
20825;BME280;10573;50.936;6.978;2023-03-15T11:43:10;101474.28;;;10.23;43.39
20825;BME280;10573;50.936;6.978;2023-03-15T11:45:59;101481.84;;;10.20;43.31
20825;BME280;10573;50.936;6.978;2023-03-15T11:51:05;101485.03;;;10.59;43.66
20825;BME280;10573;50.936;6.978;2023-03-15T11:53:44;101483.63;;;11.08;42.89
20825;BME280;10573;50.936;6.978;2023-03-15T11:56:25;101478.19;;;11.08;41.77
20825;BME280;10573;50.936;6.978;2023-03-15T11:59:08;101477.53;;;10.84;41.83
20825;BME280;10573;50.936;6.978;2023-03-15T12:01:36;101486.78;;;9.81;44.93
20825;BME280;10573;50.936;6.978;2023-03-15T12:04:35;101498.44;;;10.17;45.70
20825;BME280;10573;50.936;6.978;2023-03-15T12:07:23;101491.94;;;9.14;45.31
20825;BME280;10573;50.936;6.978;2023-03-15T12:09:54;101492.38;;;10.02;42.83
20825;BME280;10573;50.936;6.978;2023-03-15T12:17:41;101487.81;;;9.91;40.97
20825;BME280;10573;50.936;6.978;2023-03-15T12:25:14;101470.34;;;13.77;33.68
20825;BME280;10573;50.936;6.978;2023-03-15T12:27:46;101472.88;;;14.64;30.77
20825;BME280;10573;50.936;6.978;2023-03-15T12:30:20;101468.19;;;12.44;33.94
20825;BME280;10573;50.936;6.978;2023-03-15T12:32:52;101472.50;;;11.54;36.58
20825;BME280;10573;50.936;6.978;2023-03-15T12:35:19;101480.91;;;11.08;38.04
20825;BME280;10573;50.936;6.978;2023-03-15T12:37:47;101478.34;;;11.28;39.86
20825;BME280;10573;50.936;6.978;2023-03-15T12:56:29;101456.00;;;13.46;34.38
20825;BME280;10573;50.936;6.978;2023-03-15T12:59:20;101447.50;;;15.42;32.34
20825;BME280;10573;50.936;6.978;2023-03-15T13:01:49;101445.03;;;16.61;30.81
20825;BME280;10573;50.936;6.978;2023-03-15T13:04:16;101443.09;;;17.13;30.28
20825;BME280;10573;50.936;6.978;2023-03-15T13:06:50;101444.91;;;16.87;29.53
20825;BME280;10573;50.936;6.978;2023-03-15T13:12:48;101451.53;;;13.92;33.44
20825;BME280;10573;50.936;6.978;2023-03-15T13:15:01;101447.94;;;15.56;31.04
20825;BME280;10573;50.936;6.978;2023-03-15T13:17:49;101444.81;;;17.14;28.09
20825;BME280;10573;50.936;6.978;2023-03-15T13:20:23;101438.19;;;18.68;26.43
20825;BME280;10573;50.936;6.978;2023-03-15T13:23:10;101435.25;;;19.39;25.13
20825;BME280;10573;50.936;6.978;2023-03-15T13:25:47;101438.19;;;17.97;27.63
20825;BME280;10573;50.936;6.978;2023-03-15T13:28:23;101448.63;;;16.53;28.76
20825;BME280;10573;50.936;6.978;2023-03-15T13:30:52;101442.50;;;15.38;30.46
20825;BME280;10573;50.936;6.978;2023-03-15T13:33:22;101456.78;;;14.23;31.30
20825;BME280;10573;50.936;6.978;2023-03-15T13:35:52;101456.13;;;14.02;30.95
20825;BME280;10573;50.936;6.978;2023-03-15T13:40:47;101459.13;;;12.53;32.05
20825;BME280;10573;50.936;6.978;2023-03-15T13:43:12;101455.19;;;12.27;32.29
20825;BME280;10573;50.936;6.978;2023-03-15T13:45:40;101460.81;;;12.45;33.50
20825;BME280;10573;50.936;6.978;2023-03-15T13:48:06;101460.56;;;12.07;33.36
20825;BME280;10573;50.936;6.978;2023-03-15T13:50:31;101461.25;;;11.47;33.99
20825;BME280;10573;50.936;6.978;2023-03-15T13:52:56;101465.81;;;11.04;34.25
20825;BME280;10573;50.936;6.978;2023-03-15T13:55:22;101460.25;;;11.27;34.69
20825;BME280;10573;50.936;6.978;2023-03-15T13:57:51;101473.56;;;11.41;36.76
20825;BME280;10573;50.936;6.978;2023-03-15T14:00:18;101466.88;;;11.77;34.20
20825;BME280;10573;50.936;6.978;2023-03-15T14:05:11;101462.03;;;12.52;33.01
20825;BME280;10573;50.936;6.978;2023-03-15T14:07:37;101455.59;;;13.21;32.61
20825;BME280;10573;50.936;6.978;2023-03-15T14:12:32;101470.38;;;12.60;33.48
20825;BME280;10573;50.936;6.978;2023-03-15T14:14:58;101465.00;;;12.39;33.76
20825;BME280;10573;50.936;6.978;2023-03-15T14:17:25;101473.72;;;13.32;33.19